Time;durP1;ratioP1;P1;durP2;ratioP2;P2;SDS_P1;SDS_P2;PMS_P1;PMS_P2;Temp;Humidity;BMP_temperature;BMP_pressure;BME280_temperature;BME280_humidity;BME280_pressure;Samples;Min_cycle;Max_cycle;Signal;HPM_P1;HPM_P2
2022/12/16 00:00:14;;;;;;;10.60;5.70;;;;;;;-6.01;100.00;100769.00;6249039;28;20060;-74
2022/12/16 00:03:16;;;;;;;14.95;7.25;;;;;;;-6.01;100.00;100773.25;6249110;28;20049;-74
2022/12/16 00:06:17;;;;;;;16.35;5.78;;;;;;;-6.04;100.00;100765.53;6249044;28;20046;-74
2022/12/16 00:09:19;;;;;;;9.82;4.03;;;;;;;-6.07;100.00;100768.94;6248238;28;20046;-74
2022/12/16 00:12:21;;;;;;;12.25;6.10;;;;;;;-6.05;100.00;100771.50;6248579;28;20056;-74
2022/12/16 00:15:23;;;;;;;17.00;6.55;;;;;;;-6.07;100.00;100761.25;6248615;28;20505;-74
2022/12/16 00:18:24;;;;;;;32.35;5.45;;;;;;;-6.13;100.00;100767.16;6248564;28;20394;-74
2022/12/16 00:21:28;;;;;;;24.17;5.57;;;;;;;-6.13;100.00;100756.91;6248514;28;20104;-74
2022/12/16 00:24:30;;;;;;;7.40;4.18;;;;;;;-6.14;100.00;100762.00;6248442;28;20057;-74
2022/12/16 00:27:33;;;;;;;9.80;4.53;;;;;;;-6.16;100.00;100769.66;6248456;28;20126;-74
2022/12/16 00:30:34;;;;;;;4.72;3.88;;;;;;;-6.12;100.00;100775.69;6248590;28;20183;-74
2022/12/16 00:33:36;;;;;;;6.82;4.43;;;;;;;-6.14;100.00;100783.31;6248193;28;20050;-74
2022/12/16 00:36:37;;;;;;;5.53;4.43;;;;;;;-6.15;100.00;100781.59;6248417;28;20067;-74
2022/12/16 00:39:38;;;;;;;7.10;5.80;;;;;;;-6.18;100.00;100780.69;6248111;28;20049;-74
2022/12/16 00:42:41;;;;;;;9.02;3.55;;;;;;;-6.20;100.00;100779.81;6248413;28;20049;-74
2022/12/16 00:45:43;;;;;;;15.85;4.50;;;;;;;-6.21;100.00;100778.09;6248120;28;20057;-74
2022/12/16 00:48:44;;;;;;;10.88;4.07;;;;;;;-6.24;100.00;100780.59;6247940;28;20052;-74
2022/12/16 00:51:45;;;;;;;10.45;4.88;;;;;;;-6.23;100.00;100779.75;6247972;28;20064;-74
2022/12/16 00:54:47;;;;;;;11.20;5.55;;;;;;;-6.29;100.00;100777.97;6247581;28;20060;-74
2022/12/16 00:57:49;;;;;;;8.82;3.95;;;;;;;-6.30;100.00;100777.97;6247854;28;20505;-74
2022/12/16 01:00:51;;;;;;;8.27;4.13;;;;;;;-6.34;100.00;100777.03;6247623;28;20042;-74
2022/12/16 01:03:55;;;;;;;10.02;4.47;;;;;;;-6.32;100.00;100775.34;6247565;28;20049;-74
2022/12/16 01:06:57;;;;;;;15.95;5.43;;;;;;;-6.38;100.00;100773.56;6247572;28;20053;-74
2022/12/16 01:09:58;;;;;;;5.80;3.30;;;;;;;-6.39;100.00;100776.97;6247515;28;20045;-74
2022/12/16 01:13:01;;;;;;;9.35;4.28;;;;;;;-6.40;100.00;100776.97;6247353;28;20106;-74
2022/12/16 01:16:02;;;;;;;9.38;4.40;;;;;;;-6.44;100.00;100778.59;6247490;28;20060;-74
2022/12/16 01:19:04;;;;;;;10.68;4.70;;;;;;;-6.47;100.00;100781.09;6247406;28;20046;-74
2022/12/16 01:22:05;;;;;;;4.68;3.30;;;;;;;-6.47;100.00;100783.66;6246281;28;20050;-74
2022/12/16 01:25:08;;;;;;;9.65;5.28;;;;;;;-6.51;100.00;100788.69;6247100;28;20060;-74
2022/12/16 01:28:10;;;;;;;10.00;5.10;;;;;;;-6.58;100.00;100797.97;6247109;28;20046;-74
2022/12/16 01:31:16;;;;;;;7.57;4.78;;;;;;;-6.57;100.00;100804.78;6247087;28;20060;-74
2022/12/16 01:34:18;;;;;;;8.70;4.18;;;;;;;-6.54;100.00;100804.84;6246905;28;20145;-74
2022/12/16 01:37:20;;;;;;;6.63;3.63;;;;;;;-6.56;100.00;100810.75;6247268;28;20045;-74
2022/12/16 01:40:24;;;;;;;2.55;2.20;;;;;;;-6.64;100.00;100806.34;6246647;28;20056;-74
2022/12/16 01:43:29;;;;;;;7.00;3.75;;;;;;;-6.63;100.00;100817.47;6247102;28;20057;-74
2022/12/16 01:46:30;;;;;;;10.07;5.60;;;;;;;-6.63;100.00;100814.91;6246502;28;20513;-74
2022/12/16 01:49:43;;;;;;;9.43;4.15;;;;;;;-6.61;100.00;100812.38;6246943;28;20555;-74
2022/12/16 01:52:52;;;;;;;11.00;4.43;;;;;;;-6.63;100.00;100809.81;6246797;28;20046;-74
2022/12/16 01:55:55;;;;;;;9.68;4.95;;;;;;;-6.69;100.00;100810.53;6246860;28;20061;-74
2022/12/16 01:58:59;;;;;;;11.55;5.00;;;;;;;-6.71;100.00;100814.78;6246480;28;20611;-74
2022/12/16 02:02:02;;;;;;;10.57;4.28;;;;;;;-6.68;100.00;100816.50;6246674;28;20064;-74
2022/12/16 02:05:22;;;;;;;5.20;3.67;;;;;;;-6.71;100.00;100822.44;6246274;28;20568;-74
2022/12/16 02:08:23;;;;;;;12.80;5.53;;;;;;;-6.73;100.00;100820.66;6246588;28;20406;-74
2022/12/16 02:11:40;;;;;;;9.45;4.60;;;;;;;-6.77;100.00;100822.31;6246344;28;20053;-74
2022/12/16 02:15:09;;;;;;;4.65;3.90;;;;;;;-6.79;100.00;100821.44;6246065;28;20452;-74
2022/12/16 02:18:18;;;;;;;9.18;2.95;;;;;;;-6.80;100.00;100821.41;6246558;28;20045;-74
2022/12/16 02:21:46;;;;;;;5.93;3.42;;;;;;;-6.82;100.00;100826.47;6246282;28;20053;-74
2022/12/16 02:25:19;;;;;;;5.80;4.20;;;;;;;-6.83;100.00;100826.47;6246036;28;20049;-74
2022/12/16 02:28:34;;;;;;;6.97;4.55;;;;;;;-6.85;100.00;100826.44;6246305;28;20050;-74
2022/12/16 02:31:44;;;;;;;8.27;2.50;;;;;;;-6.87;100.00;100819.56;6246290;28;20052;-74
2022/12/16 02:34:55;;;;;;;8.60;3.70;;;;;;;-6.88;100.00;100818.72;6250835;28;20075;-73
2022/12/16 02:38:09;;;;;;;5.85;2.33;;;;;;;-6.89;100.00;100824.66;6251362;28;20064;-74
2022/12/16 02:41:21;;;;;;;13.02;4.85;;;;;;;-6.97;100.00;100829.63;6250812;28;20084;-74
2022/12/16 02:44:29;;;;;;;7.60;3.47;;;;;;;-7.06;100.00;100831.13;6250697;28;20428;-74
2022/12/16 02:47:32;;;;;;;7.63;4.38;;;;;;;-7.08;100.00;100832.81;6250763;28;20056;-74
2022/12/16 02:50:39;;;;;;;20.33;5.03;;;;;;;-7.11;100.00;100838.69;6250720;28;20049;-74
2022/12/16 02:53:43;;;;;;;9.68;3.78;;;;;;;-7.06;100.00;100834.53;6250788;28;20056;-74
2022/12/16 02:56:58;;;;;;;11.98;3.85;;;;;;;-7.08;100.00;100831.13;6250696;28;20049;-74
2022/12/16 03:00:03;;;;;;;5.80;2.75;;;;;;;-7.28;100.00;100832.41;6250326;28;20049;-74
2022/12/16 03:03:09;;;;;;;5.18;3.17;;;;;;;-7.20;100.00;100831.72;6250487;28;20424;-74
2022/12/16 03:06:14;;;;;;;7.40;3.78;;;;;;;-7.15;100.00;100836.91;6250227;28;20053;-74
2022/12/16 03:09:21;;;;;;;14.40;5.95;;;;;;;-7.16;100.00;100842.88;6250616;28;20046;-74
2022/12/16 03:12:23;;;;;;;3.75;2.83;;;;;;;-7.15;100.00;100837.78;6249882;28;20580;-74
2022/12/16 03:15:29;;;;;;;5.85;3.00;;;;;;;-7.19;100.00;100843.66;6250247;28;20050;-74
2022/12/16 03:18:33;;;;;;;3.65;3.13;;;;;;;-7.26;100.00;100846.94;6249145;28;20406;-74
2022/12/16 03:21:41;;;;;;;3.20;1.98;;;;;;;-7.25;100.00;100852.88;6249868;28;20080;-74
2022/12/16 03:24:42;;;;;;;9.38;2.83;;;;;;;-7.32;100.00;100848.47;6250108;28;20053;-74
2022/12/16 03:27:50;;;;;;;4.35;2.70;;;;;;;-7.34;100.00;100855.25;6249816;28;20420;-74
2022/12/16 03:30:58;;;;;;;11.80;4.27;;;;;;;-7.35;100.00;100854.41;6250074;28;20075;-74
2022/12/16 03:34:09;;;;;;;7.67;3.63;;;;;;;-7.36;100.00;100855.19;6249766;28;20288;-74
2022/12/16 03:37:13;;;;;;;9.90;3.30;;;;;;;-7.36;100.00;100850.09;6250036;28;20053;-74
2022/12/16 03:40:15;;;;;;;6.05;2.88;;;;;;;-7.31;100.00;100855.28;6249675;28;20049;-74
2022/12/16 03:43:17;;;;;;;14.65;3.45;;;;;;;-7.36;100.00;100847.53;6248923;28;20417;-74
2022/12/16 03:46:19;;;;;;;4.22;2.88;;;;;;;-7.34;100.00;100853.56;6249034;28;20050;-74
2022/12/16 03:49:22;;;;;;;8.55;4.60;;;;;;;-7.35;100.00;100863.75;6249522;28;20045;-74
2022/12/16 03:52:24;;;;;;;3.28;1.95;;;;;;;-7.35;100.00;100859.50;6249280;28;20053;-74
2022/12/16 03:55:25;;;;;;;7.53;3.88;;;;;;;-7.36;100.00;100859.44;6249267;28;20053;-74
2022/12/16 03:58:27;;;;;;;5.78;2.63;;;;;;;-7.39;100.00;100865.38;6249454;28;20045;-74
2022/12/16 04:01:28;;;;;;;10.30;2.30;;;;;;;-7.37;100.00;100866.25;6248935;28;20053;-73
2022/12/16 04:04:31;;;;;;;15.57;3.13;;;;;;;-7.37;100.00;100865.38;6249073;28;20054;-74
2022/12/16 04:07:32;;;;;;;16.35;3.65;;;;;;;-7.36;100.00;100862.84;6248952;28;20493;-73
2022/12/16 04:27:26;;;;;;;4.63;3.42;;;;;;;-7.46;100.00;100874.56;6248565;28;20491;-73
2022/12/16 04:30:33;;;;;;;6.65;3.67;;;;;;;-7.48;100.00;100866.03;6248419;28;20050;-73
